Title
Si parla di Noi: rivista Volo a Vela N.359/2017
Acrobazia: rivista Volo a Vela N.366/2018
              
Filmato in campo del 21-05-2017


Corsi per pilota di aliante di primo e secondo periodo





Facebook
19/09/2018
Claudio M.: dalle 13
Roberto Z.: dalle 14 a sera
Luca M.: Dalle 12 a sera
20/09/2018
Claudio M.: dalle 13
Luciano B.: dalle 13/30 a sera
Roberto Z.: dalle 14 a sera
Luca M.: Dalle 12 a sera piu' torta
21/09/2018
Claudio M.: dalle 13
Luciano B.: dalle 13/30 a sera
Roberto Z.: dalle 14 a sera
22/09/2018
Claudio M.: dalle 13
Mariagrazia V.: Dalle 12
Roberto Z.: dalle 10 a sera
Michele D.: dalle 1330
23/09/2018
Roberto Z.: dalle 10 a sera
Michele D.: dalle 1330
26/09/2018
Luciano F.: Luciano 3 voli
21/09/2018
Paolo B.: a che ora devo arrivare per fare un volo di 10´?
Paolo B.: a che ora devo arrivare per fare un volo di 10´?
Paolo B.: a che ora devo arrivare per fare un volo di 10´
Paolo B.: a che ora devo arrivare per fare un volo di 10 min
Paolo B.: a che ora devo arrivare ?
Paolo B.: dalle 14
Paolo B.: dalle 14
19/09/2018
Paolo S.:
20/09/2018
Gianluca B.: dalle 14:30
21/09/2018
Gianluca B.: dalle 14:30
25/09/2018
Gianluca B.: Dalle 14:30
26/09/2018
Luciano F.: Dalle 11.00 alle 18.00
Gianluca B.: Dalle 14:30
28/09/2018
Gianluca B.: Dalle 14:30
LIPE 200320Z 26004KT CAVOK 18/16 Q1019 >>
>>
>>
LIPE 192300Z 2000/2024 VRB05KT 3000 BR SCT060 >>
LIMP 191700Z 1918/2018 VRB05KT CAVOK >>
Logo
Aero Club Volovelistico Tricolore – Castellazzo (Reggio Emilia)
Via Enrico Fermi, 61 - 42123 Reggio Emilia - C.F. 91107430356 - PEC: avtricolore@pec.it
Associazione Sportiva Dilettantistica Federata Aero Club Italia

Questo sito non fa uso di cookies a fini di profilazione o di marketing e non registra le abitudini dei visitatori.
Per maggiori informazioni consulta la nostra informativa su privacy e cookies
Sviluppato da Bruno Bazzani. Contenuti ed immagini a cura dei Soci Aeroclub Tricolore.
Flypink